Mount Vernon, Virginia
Current Conditions -  °F | °C
As of 1:58 PM on Thursday 30 Oct 2014 (Local Time) from KDAA Reporting Station
Clear Clear  
Wind Chill: 60°   Ceiling: Unl
Heat Index: 60°   Visibility: 10mi
Dew Point: 36°   Wind: 6mph
Humidity: 40%   Direction: NA
Pressure: 30.04"   Gusts: NA
Location:  38.71°N, 77.08°W
Report Text: KDAA 301758Z AUTO VRB05KT 10SM CLR 16/02 A3004 RMK AO2 SLP176 T01550020 10158 20068 58014
Loading
Personal Weather Stations






























Interactive Weather Map New forecast layout! Learn more

10-Day Weather Forecast

Advertisements
Track Severe Weather on mobile